Time;durP1;ratioP1;P1;durP2;ratioP2;P2;SDS_P1;SDS_P2;PMS_P1;PMS_P2;Temp;Humidity;BMP_temperature;BMP_pressure;BME280_temperature;BME280_humidity;BME280_pressure;Samples;Min_cycle;Max_cycle;Signal;HPM_P1;HPM_P2
2024/01/04 00:00:43;;;;;;;0.50;0.10;;;;;;;;;;5015565;28;20483;-77
2024/01/04 00:03:08;;;;;;;0.82;0.10;;;;;;;;;;5006996;28;20280;-77
2024/01/04 00:05:33;;;;;;;0.25;0.10;;;;;;;;;;5012165;28;20422;-77
2024/01/04 00:07:58;;;;;;;0.43;0.00;;;;;;;;;;5010968;28;20038;-76
2024/01/04 00:10:23;;;;;;;1.35;0.10;;;;;;;;;;5007162;28;20129;-77
2024/01/04 00:12:49;;;;;;;0.10;0.00;;;;;;;;;;5010629;28;20026;-77
2024/01/04 00:15:14;;;;;;;0.20;0.10;;;;;;;;;;5013758;28;20041;-77
2024/01/04 00:17:39;;;;;;;1.58;0.28;;;;;;;;;;5014760;28;20112;-77
2024/01/04 00:20:04;;;;;;;0.30;0.10;;;;;;;;;;5009227;28;20034;-77
2024/01/04 00:22:29;;;;;;;0.35;0.10;;;;;;;;;;5008276;28;20170;-77
2024/01/04 00:24:55;;;;;;;0.38;0.00;;;;;;;;;;5007034;28;20030;-76
2024/01/04 00:27:20;;;;;;;1.48;0.10;;;;;;;;;;5012467;28;20065;-77
2024/01/04 00:29:46;;;;;;;1.25;0.10;;;;;;;;;;5017386;28;20059;-77
2024/01/04 00:32:11;;;;;;;1.25;0.20;;;;;;;;;;5024461;28;20057;-77
2024/01/04 00:34:37;;;;;;;1.00;0.10;;;;;;;;;;5009897;28;20505;-76
2024/01/04 00:37:03;;;;;;;0.00;0.00;;;;;;;;;;4997209;28;20107;-77
2024/01/04 00:39:28;;;;;;;0.75;0.15;;;;;;;;;;5025085;28;20081;-77
2024/01/04 00:41:54;;;;;;;0.93;0.10;;;;;;;;;;5013515;28;20139;-77
2024/01/04 00:44:19;;;;;;;0.43;0.00;;;;;;;;;;5027715;28;20032;-76
2024/01/04 00:46:44;;;;;;;0.70;0.20;;;;;;;;;;5017903;28;20038;-77
2024/01/04 00:49:10;;;;;;;2.00;0.57;;;;;;;;;;5007928;28;20053;-77
2024/01/04 00:51:35;;;;;;;1.20;0.20;;;;;;;;;;5007331;28;20482;-77
2024/01/04 00:54:01;;;;;;;0.68;0.10;;;;;;;;;;4998233;28;20076;-77
2024/01/04 00:56:31;;;;;;;1.02;0.10;;;;;;;;;;5011687;28;20057;-77
2024/01/04 00:58:56;;;;;;;0.40;0.10;;;;;;;;;;5028819;28;20025;-77
2024/01/04 01:01:21;;;;;;;1.98;0.15;;;;;;;;;;5009840;28;20034;-76
2024/01/04 01:03:46;;;;;;;1.45;0.10;;;;;;;;;;5009045;28;20065;-77
2024/01/04 01:06:11;;;;;;;1.02;0.20;;;;;;;;;;5006292;28;20023;-77
2024/01/04 01:08:36;;;;;;;0.95;0.15;;;;;;;;;;5024751;28;20109;-77
2024/01/04 01:11:02;;;;;;;0.30;0.10;;;;;;;;;;5013035;28;20049;-77
2024/01/04 01:13:27;;;;;;;1.60;0.17;;;;;;;;;;5011905;28;20021;-77
2024/01/04 01:15:52;;;;;;;0.22;0.10;;;;;;;;;;5009063;28;20040;-77
2024/01/04 01:18:17;;;;;;;1.95;0.25;;;;;;;;;;5020694;28;20113;-76
2024/01/04 01:20:43;;;;;;;1.15;0.10;;;;;;;;;;4996931;28;20033;-77
2024/01/04 01:23:08;;;;;;;1.00;0.20;;;;;;;;;;5000062;28;20032;-77
2024/01/04 01:25:33;;;;;;;0.20;0.10;;;;;;;;;;5009387;28;20410;-77
2024/01/04 01:27:58;;;;;;;1.25;0.17;;;;;;;;;;5029557;28;20029;-77
2024/01/04 01:30:23;;;;;;;1.95;0.20;;;;;;;;;;5010830;28;20124;-77
2024/01/04 01:32:48;;;;;;;1.23;0.20;;;;;;;;;;5021820;28;20409;-78
2024/01/04 01:35:14;;;;;;;2.67;0.10;;;;;;;;;;5002748;28;20074;-77
2024/01/04 01:37:39;;;;;;;0.52;0.00;;;;;;;;;;5012176;28;20034;-77
2024/01/04 01:40:05;;;;;;;0.45;0.10;;;;;;;;;;5011031;28;20033;-77
2024/01/04 01:42:30;;;;;;;0.73;0.10;;;;;;;;;;5009553;28;20078;-75
2024/01/04 01:44:55;;;;;;;2.95;0.40;;;;;;;;;;5022306;28;20095;-77
2024/01/04 01:47:22;;;;;;;0.43;0.20;;;;;;;;;;5017570;28;20434;-77
2024/01/04 01:49:48;;;;;;;1.77;0.30;;;;;;;;;;5005341;28;20032;-77
2024/01/04 01:52:13;;;;;;;1.65;0.25;;;;;;;;;;5010612;28;20030;-77
2024/01/04 01:54:39;;;;;;;2.90;0.22;;;;;;;;;;5010480;28;20026;-77
2024/01/04 01:57:05;;;;;;;0.90;0.20;;;;;;;;;;5007849;28;20508;-77
2024/01/04 01:59:30;;;;;;;1.10;0.22;;;;;;;;;;5026543;28;20095;-77
2024/01/04 02:01:55;;;;;;;2.38;0.20;;;;;;;;;;5023377;28;20030;-77
2024/01/04 02:04:20;;;;;;;0.47;0.10;;;;;;;;;;5022300;28;20034;-77
2024/01/04 02:06:46;;;;;;;1.50;0.10;;;;;;;;;;5011017;28;20034;-76
2024/01/04 02:09:11;;;;;;;1.08;0.15;;;;;;;;;;5007668;28;20143;-77
2024/01/04 02:11:36;;;;;;;0.77;0.20;;;;;;;;;;5009092;28;20555;-77
2024/01/04 02:14:01;;;;;;;2.92;0.20;;;;;;;;;;5022761;28;20018;-77
2024/01/04 02:16:26;;;;;;;1.27;0.20;;;;;;;;;;5019108;28;20034;-77
2024/01/04 02:18:52;;;;;;;2.55;0.20;;;;;;;;;;5011924;28;20026;-77
2024/01/04 02:21:17;;;;;;;0.65;0.10;;;;;;;;;;5010700;28;20018;-77
2024/01/04 02:23:42;;;;;;;1.70;0.17;;;;;;;;;;5009870;28;20038;-76
2024/01/04 02:26:07;;;;;;;0.63;0.25;;;;;;;;;;5005892;28;20113;-77
2024/01/04 02:28:32;;;;;;;0.75;0.10;;;;;;;;;;5010646;28;20030;-77
2024/01/04 02:30:57;;;;;;;0.22;0.05;;;;;;;;;;5008634;28;20459;-77
2024/01/04 02:33:23;;;;;;;0.82;0.20;;;;;;;;;;5010070;28;20026;-77
2024/01/04 02:35:48;;;;;;;0.40;0.10;;;;;;;;;;5010356;28;20026;-77
2024/01/04 02:38:13;;;;;;;1.48;0.05;;;;;;;;;;5006140;28;20113;-77
2024/01/04 02:40:38;;;;;;;0.50;0.00;;;;;;;;;;5012059;28;20033;-76
2024/01/04 02:43:09;;;;;;;1.70;0.20;;;;;;;;;;5009639;28;20066;-77
2024/01/04 02:45:35;;;;;;;1.98;0.20;;;;;;;;;;5024485;28;20134;-77
2024/01/04 02:48:01;;;;;;;0.17;0.00;;;;;;;;;;5012096;28;20026;-77
2024/01/04 02:50:26;;;;;;;1.77;0.10;;;;;;;;;;5024431;28;20202;-77
2024/01/04 02:52:51;;;;;;;1.10;0.20;;;;;;;;;;5009590;28;20022;-78
2024/01/04 02:55:17;;;;;;;0.90;0.10;;;;;;;;;;5007135;28;20030;-77
2024/01/04 02:57:42;;;;;;;0.80;0.10;;;;;;;;;;5007411;28;20033;-77
2024/01/04 03:00:07;;;;;;;1.10;0.20;;;;;;;;;;5013927;28;20029;-77
2024/01/04 03:02:33;;;;;;;1.92;0.25;;;;;;;;;;5027102;28;20030;-77
2024/01/04 03:04:58;;;;;;;0.52;0.10;;;;;;;;;;5011394;28;20080;-77
2024/01/04 03:07:23;;;;;;;1.17;0.20;;;;;;;;;;5007448;28;20034;-77
2024/01/04 03:09:48;;;;;;;0.40;0.10;;;;;;;;;;5006808;28;20662;-77
2024/01/04 03:12:14;;;;;;;1.00;0.20;;;;;;;;;;5009080;28;20105;-77
2024/01/04 03:14:39;;;;;;;0.82;0.20;;;;;;;;;;5014501;28;20486;-76
2024/01/04 03:17:04;;;;;;;0.80;0.10;;;;;;;;;;5015933;28;20034;-77
2024/01/04 03:19:29;;;;;;;0.93;0.28;;;;;;;;;;5011954;28;20461;-77
2024/01/04 03:21:54;;;;;;;1.65;0.47;;;;;;;;;;5011774;28;20030;-77
2024/01/04 03:24:20;;;;;;;0.52;0.10;;;;;;;;;;5011616;28;20087;-77
2024/01/04 03:26:45;;;;;;;2.40;0.20;;;;;;;;;;5010757;28;20034;-77
2024/01/04 03:29:10;;;;;;;1.33;0.30;;;;;;;;;;5016414;28;20041;-77
2024/01/04 03:31:35;;;;;;;1.30;0.20;;;;;;;;;;5015153;28;20022;-77
2024/01/04 03:34:00;;;;;;;0.70;0.30;;;;;;;;;;5013416;28;20136;-78
2024/01/04 03:36:25;;;;;;;1.15;0.20;;;;;;;;;;5012223;28;20451;-77
2024/01/04 03:38:51;;;;;;;0.65;0.10;;;;;;;;;;5009526;28;20026;-78
2024/01/04 03:41:16;;;;;;;1.40;0.20;;;;;;;;;;5007973;28;20034;-79
2024/01/04 03:43:41;;;;;;;1.73;0.22;;;;;;;;;;5013215;28;20057;-79
2024/01/04 03:46:10;;;;;;;1.13;0.25;;;;;;;;;;5026229;28;20033;-79
2024/01/04 03:48:35;;;;;;;1.63;0.25;;;;;;;;;;5006274;28;20089;-79
2024/01/04 03:51:01;;;;;;;0.68;0.22;;;;;;;;;;5002040;28;20026;-79
2024/01/04 03:53:26;;;;;;;0.63;0.30;;;;;;;;;;5007037;28;20027;-79
2024/01/04 03:55:51;;;;;;;1.05;0.10;;;;;;;;;;5010625;28;20013;-79
2024/01/04 03:58:16;;;;;;;1.35;0.50;;;;;;;;;;5017047;28;20029;-79
2024/01/04 04:00:42;;;;;;;2.15;0.30;;;;;;;;;;5011309;28;20030;-79
2024/01/04 04:03:07;;;;;;;1.85;0.20;;;;;;;;;;5007902;28;20065;-79
2024/01/04 04:05:32;;;;;;;0.95;0.20;;;;;;;;;;5013871;28;20037;-79
2024/01/04 04:07:57;;;;;;;4.30;0.50;;;;;;;;;;5005862;28;20379;-79
2024/01/04 04:10:23;;;;;;;2.05;0.30;;;;;;;;;;5013439;28;20513;-79
2024/01/04 04:12:48;;;;;;;4.60;0.77;;;;;;;;;;5012301;28;20030;-79
2024/01/04 04:15:14;;;;;;;2.63;0.30;;;;;;;;;;5011488;28;20058;-79
2024/01/04 04:17:39;;;;;;;1.10;0.20;;;;;;;;;;5013249;28;20030;-79
2024/01/04 04:20:04;;;;;;;1.08;0.40;;;;;;;;;;5005752;28;20022;-79
2024/01/04 04:22:29;;;;;;;1.65;0.50;;;;;;;;;;5007511;28;20045;-79
2024/01/04 04:24:54;;;;;;;1.35;0.25;;;;;;;;;;5012311;28;20038;-79
2024/01/04 04:27:20;;;;;;;1.55;0.20;;;;;;;;;;5008510;28;20046;-79
2024/01/04 04:29:45;;;;;;;1.13;0.20;;;;;;;;;;5012720;28;20030;-79
2024/01/04 04:32:10;;;;;;;1.20;0.13;;;;;;;;;;5006190;28;20031;-79
2024/01/04 04:34:35;;;;;;;1.92;0.20;;;;;;;;;;5006947;28;20029;-79
2024/01/04 04:37:01;;;;;;;1.80;0.30;;;;;;;;;;5010220;28;20057;-78
2024/01/04 04:39:26;;;;;;;1.17;0.20;;;;;;;;;;5011426;28;20034;-79
2024/01/04 04:41:51;;;;;;;0.60;0.30;;;;;;;;;;5013060;28;20041;-79
2024/01/04 04:44:16;;;;;;;1.15;0.20;;;;;;;;;;5011225;28;20117;-78
2024/01/04 04:46:42;;;;;;;1.90;0.20;;;;;;;;;;5009621;28;20406;-78
2024/01/04 04:49:07;;;;;;;1.70;0.20;;;;;;;;;;5006536;28;20406;-79
2024/01/04 04:51:32;;;;;;;2.28;0.30;;;;;;;;;;5012309;28;20029;-79
2024/01/04 04:53:58;;;;;;;2.92;0.55;;;;;;;;;;5012314;28;20022;-78
2024/01/04 04:56:23;;;;;;;2.38;0.47;;;;;;;;;;5008491;28;20022;-79
2024/01/04 04:58:48;;;;;;;2.08;0.28;;;;;;;;;;5009147;28;20017;-78
2024/01/04 05:01:14;;;;;;;1.52;0.20;;;;;;;;;;5005441;28;20487;-79
2024/01/04 05:03:39;;;;;;;1.25;0.20;;;;;;;;;;5005263;28;20030;-79
2024/01/04 05:06:05;;;;;;;2.75;0.25;;;;;;;;;;5012083;28;20063;-78
2024/01/04 05:08:30;;;;;;;1.95;0.30;;;;;;;;;;5010447;28;20042;-79
2024/01/04 05:10:56;;;;;;;0.98;0.15;;;;;;;;;;5008984;28;20037;-78
2024/01/04 05:13:21;;;;;;;1.02;0.10;;;;;;;;;;5005926;28;20019;-79
2024/01/04 05:15:46;;;;;;;4.53;0.50;;;;;;;;;;5006183;28;20030;-78
2024/01/04 05:18:11;;;;;;;1.70;0.20;;;;;;;;;;5008679;28;20640;-78
2024/01/04 05:20:37;;;;;;;0.98;0.17;;;;;;;;;;5011476;28;20038;-78
2024/01/04 05:23:02;;;;;;;1.83;0.20;;;;;;;;;;5010891;28;20041;-78
2024/01/04 05:25:27;;;;;;;1.15;0.30;;;;;;;;;;5000867;28;20026;-79
2024/01/04 05:27:52;;;;;;;1.17;0.35;;;;;;;;;;5012215;28;20037;-78
2024/01/04 05:30:17;;;;;;;2.85;0.45;;;;;;;;;;5005839;28;20036;-78
2024/01/04 05:32:43;;;;;;;0.98;0.25;;;;;;;;;;5008311;28;20113;-78
2024/01/04 05:35:08;;;;;;;2.80;0.47;;;;;;;;;;5018695;28;20433;-78
2024/01/04 05:37:34;;;;;;;1.58;0.60;;;;;;;;;;5009774;28;20064;-78
2024/01/04 05:40:00;;;;;;;1.60;0.20;;;;;;;;;;5008150;28;20034;-78
2024/01/04 05:42:25;;;;;;;0.52;0.40;;;;;;;;;;5004328;28;20030;-78
2024/01/04 05:44:50;;;;;;;0.55;0.20;;;;;;;;;;5019488;28;20465;-78
2024/01/04 05:47:15;;;;;;;0.98;0.22;;;;;;;;;;5003910;28;20045;-78
2024/01/04 05:49:40;;;;;;;1.50;0.25;;;;;;;;;;5010113;28;20026;-78
2024/01/04 05:52:06;;;;;;;1.17;0.10;;;;;;;;;;5010260;28;20505;-78
2024/01/04 05:54:31;;;;;;;1.55;0.13;;;;;;;;;;5007873;28;20034;-78
2024/01/04 05:56:56;;;;;;;0.77;0.13;;;;;;;;;;5020724;28;20406;-78
2024/01/04 05:59:24;;;;;;;0.82;0.10;;;;;;;;;;5008814;28;20038;-78
2024/01/04 06:01:49;;;;;;;1.23;0.30;;;;;;;;;;5011115;28;20064;-78
2024/01/04 06:04:15;;;;;;;0.77;0.20;;;;;;;;;;5008138;28;20120;-79
2024/01/04 06:06:40;;;;;;;0.38;0.10;;;;;;;;;;5008452;28;20052;-78
2024/01/04 06:09:05;;;;;;;1.48;0.25;;;;;;;;;;4999342;28;20117;-78
2024/01/04 06:11:30;;;;;;;2.80;0.30;;;;;;;;;;4994317;28;20030;-78
2024/01/04 06:13:55;;;;;;;1.40;0.32;;;;;;;;;;4997946;28;20473;-77
2024/01/04 06:16:21;;;;;;;3.45;0.30;;;;;;;;;;5008555;28;20034;-77
2024/01/04 06:18:46;;;;;;;4.60;0.40;;;;;;;;;;5009418;28;20018;-76
2024/01/04 06:21:11;;;;;;;2.15;0.20;;;;;;;;;;5005827;28;20037;-79
2024/01/04 06:23:37;;;;;;;2.58;0.20;;;;;;;;;;5006188;28;20042;-81
2024/01/04 06:26:02;;;;;;;2.47;0.30;;;;;;;;;;5006798;28;20121;-80
2024/01/04 06:28:27;;;;;;;1.35;0.20;;;;;;;;;;5007757;28;20033;-80
2024/01/04 06:30:52;;;;;;;0.68;0.08;;;;;;;;;;5011180;28;20037;-80
2024/01/04 06:33:17;;;;;;;0.98;0.10;;;;;;;;;;5007975;28;20492;-79
2024/01/04 06:35:43;;;;;;;1.73;0.10;;;;;;;;;;5011907;28;20083;-79
2024/01/04 06:38:08;;;;;;;0.43;0.10;;;;;;;;;;5005330;28;20030;-79
2024/01/04 06:40:34;;;;;;;2.25;0.20;;;;;;;;;;5008114;28;20517;-79
2024/01/04 06:43:00;;;;;;;1.65;0.25;;;;;;;;;;5008593;28;20078;-78
2024/01/04 06:45:25;;;;;;;0.88;0.28;;;;;;;;;;5009718;28;20031;-79
2024/01/04 06:47:51;;;;;;;0.28;0.20;;;;;;;;;;5011719;28;20026;-78
2024/01/04 06:50:16;;;;;;;0.75;0.30;;;;;;;;;;5011407;28;20098;-79
2024/01/04 06:52:41;;;;;;;1.63;0.30;;;;;;;;;;5010362;28;20036;-79
2024/01/04 06:55:06;;;;;;;1.33;0.20;;;;;;;;;;5006292;28;20030;-78
2024/01/04 06:57:31;;;;;;;1.50;0.57;;;;;;;;;;5014263;28;20482;-79
2024/01/04 06:59:57;;;;;;;2.55;0.40;;;;;;;;;;5014776;28;20048;-78
2024/01/04 07:02:22;;;;;;;0.80;0.20;;;;;;;;;;5026199;28;20767;-78
2024/01/04 07:04:47;;;;;;;1.52;0.40;;;;;;;;;;5021579;28;20030;-78
2024/01/04 07:07:13;;;;;;;1.65;0.30;;;;;;;;;;5010211;28;20042;-79
2024/01/04 07:09:38;;;;;;;1.27;0.30;;;;;;;;;;5013308;28;20121;-78
2024/01/04 07:12:03;;;;;;;1.83;0.30;;;;;;;;;;5014624;28;20033;-78
2024/01/04 07:14:28;;;;;;;1.10;0.30;;;;;;;;;;5011844;28;20069;-79
2024/01/04 07:16:54;;;;;;;2.13;0.40;;;;;;;;;;5011853;28;20176;-78
2024/01/04 07:19:19;;;;;;;0.88;0.25;;;;;;;;;;5012809;28;20047;-78
2024/01/04 07:21:44;;;;;;;0.65;0.30;;;;;;;;;;5008964;28;20036;-78
2024/01/04 07:24:10;;;;;;;0.80;0.10;;;;;;;;;;5011268;28;20034;-78
2024/01/04 07:26:35;;;;;;;0.60;0.17;;;;;;;;;;5013115;28;20108;-79
2024/01/04 07:29:00;;;;;;;1.63;0.20;;;;;;;;;;5011950;28;20048;-78
2024/01/04 07:31:26;;;;;;;0.98;0.22;;;;;;;;;;5009220;28;20158;-78
2024/01/04 07:33:51;;;;;;;3.15;0.43;;;;;;;;;;5014265;28;20056;-78
2024/01/04 07:36:16;;;;;;;1.13;0.20;;;;;;;;;;5004086;28;20038;-79
2024/01/04 07:38:41;;;;;;;1.48;0.40;;;;;;;;;;5028519;28;20054;-78
2024/01/04 07:41:07;;;;;;;0.43;0.13;;;;;;;;;;5013026;28;20550;-78
2024/01/04 07:43:32;;;;;;;0.68;0.10;;;;;;;;;;5010263;28;20423;-78
2024/01/04 07:45:57;;;;;;;0.70;0.20;;;;;;;;;;5010111;28;20045;-78
2024/01/04 07:48:24;;;;;;;0.85;0.20;;;;;;;;;;5021698;28;20026;-78
2024/01/04 07:50:49;;;;;;;1.75;0.20;;;;;;;;;;5010672;28;20026;-79
2024/01/04 07:53:14;;;;;;;0.80;0.30;;;;;;;;;;5012917;28;20040;-78
2024/01/04 07:55:40;;;;;;;1.50;0.30;;;;;;;;;;5013713;28;20112;-78
2024/01/04 07:58:05;;;;;;;1.95;0.30;;;;;;;;;;5014693;28;20045;-78
2024/01/04 08:00:31;;;;;;;1.20;0.30;;;;;;;;;;5013596;28;20044;-78
2024/01/04 08:02:56;;;;;;;0.40;0.20;;;;;;;;;;5007583;28;20089;-79
2024/01/04 08:05:21;;;;;;;0.35;0.10;;;;;;;;;;5025303;28;20038;-78
2024/01/04 08:07:46;;;;;;;1.42;0.30;;;;;;;;;;5013360;28;20030;-79
2024/01/04 08:10:11;;;;;;;0.65;0.10;;;;;;;;;;5025936;28;20113;-78
2024/01/04 08:12:40;;;;;;;0.25;0.13;;;;;;;;;;5008843;28;20083;-78
2024/01/04 08:15:07;;;;;;;0.22;0.10;;;;;;;;;;5022688;28;20088;-78
2024/01/04 08:17:32;;;;;;;0.73;0.20;;;;;;;;;;5020717;28;20062;-78
2024/01/04 08:19:58;;;;;;;0.52;0.20;;;;;;;;;;5025242;28;20061;-78
2024/01/04 08:22:23;;;;;;;0.55;0.20;;;;;;;;;;5005347;28;20061;-78
2024/01/04 08:24:48;;;;;;;0.45;0.10;;;;;;;;;;5012510;28;20037;-78
2024/01/04 08:27:13;;;;;;;0.32;0.10;;;;;;;;;;5007408;28;20494;-78
2024/01/04 08:29:39;;;;;;;0.75;0.20;;;;;;;;;;5014705;28;20030;-78
2024/01/04 08:32:05;;;;;;;1.45;0.28;;;;;;;;;;5006692;28;20022;-78
2024/01/04 08:34:30;;;;;;;0.52;0.20;;;;;;;;;;5011824;28;20425;-78
2024/01/04 08:36:55;;;;;;;1.85;0.30;;;;;;;;;;5012632;28;20028;-78
2024/01/04 08:39:21;;;;;;;1.00;0.20;;;;;;;;;;5017404;28;20049;-78
2024/01/04 08:41:46;;;;;;;0.68;0.10;;;;;;;;;;5025239;28;20037;-78
2024/01/04 08:44:11;;;;;;;0.45;0.10;;;;;;;;;;5007038;28;20041;-78
2024/01/04 08:46:37;;;;;;;1.58;0.32;;;;;;;;;;5005189;28;20029;-77
2024/01/04 08:49:04;;;;;;;1.40;0.20;;;;;;;;;;5012197;28;20036;-78
2024/01/04 08:51:29;;;;;;;0.85;0.30;;;;;;;;;;5009645;28;20459;-78
2024/01/04 08:53:54;;;;;;;1.40;0.57;;;;;;;;;;5011402;28;20061;-78
2024/01/04 08:56:19;;;;;;;1.55;0.35;;;;;;;;;;5007215;28;20105;-78
2024/01/04 08:58:44;;;;;;;0.28;0.10;;;;;;;;;;5014171;28;20022;-78
2024/01/04 09:01:09;;;;;;;0.40;0.20;;;;;;;;;;5005739;28;20041;-77
2024/01/04 09:03:35;;;;;;;1.40;0.40;;;;;;;;;;5025572;28;20026;-78
2024/01/04 09:06:02;;;;;;;1.02;0.30;;;;;;;;;;5010285;28;20054;-76
2024/01/04 09:08:27;;;;;;;0.75;0.30;;;;;;;;;;5005754;28;20049;-77
2024/01/04 09:10:52;;;;;;;1.17;0.40;;;;;;;;;;5008302;28;20022;-77
2024/01/04 09:13:17;;;;;;;1.33;0.28;;;;;;;;;;5003234;28;20033;-76
2024/01/04 09:15:42;;;;;;;0.85;0.40;;;;;;;;;;5007350;28;20452;-76
2024/01/04 09:18:07;;;;;;;0.35;0.20;;;;;;;;;;5010103;28;20127;-76
2024/01/04 09:20:33;;;;;;;0.47;0.20;;;;;;;;;;5008142;28;20034;-76
2024/01/04 09:22:58;;;;;;;0.95;0.30;;;;;;;;;;5018638;28;20038;-76
2024/01/04 09:25:23;;;;;;;0.65;0.20;;;;;;;;;;5005250;28;20041;-76
2024/01/04 09:27:48;;;;;;;0.65;0.30;;;;;;;;;;5012160;28;20087;-76
2024/01/04 09:30:13;;;;;;;1.85;0.20;;;;;;;;;;5010544;28;20022;-76
2024/01/04 09:32:39;;;;;;;0.93;0.30;;;;;;;;;;5007806;28;20092;-76
2024/01/04 09:35:05;;;;;;;0.52;0.20;;;;;;;;;;5009534;28;20176;-76
2024/01/04 09:37:30;;;;;;;0.93;0.30;;;;;;;;;;5003579;28;20037;-76
2024/01/04 09:39:56;;;;;;;2.20;0.30;;;;;;;;;;5028296;23;20490;-76
2024/01/04 09:42:21;;;;;;;0.90;0.15;;;;;;;;;;5022573;28;20505;-76
2024/01/04 09:44:47;;;;;;;0.60;0.20;;;;;;;;;;5019343;28;20091;-77
2024/01/04 09:47:14;;;;;;;2.40;0.30;;;;;;;;;;5021439;28;20029;-77
2024/01/04 09:49:40;;;;;;;1.70;0.30;;;;;;;;;;5020107;28;20053;-77
2024/01/04 09:52:06;;;;;;;2.80;0.40;;;;;;;;;;5000774;28;20036;-83
2024/01/04 09:54:31;;;;;;;7.22;0.50;;;;;;;;;;5002790;28;20082;-79
2024/01/04 09:56:57;;;;;;;2.35;0.47;;;;;;;;;;5015460;28;20109;-78
2024/01/04 09:59:22;;;;;;;2.08;0.50;;;;;;;;;;5003669;28;20040;-78
2024/01/04 10:01:47;;;;;;;2.47;0.60;;;;;;;;;;5001260;28;20065;-78
2024/01/04 10:04:14;;;;;;;4.15;1.35;;;;;;;;;;5016671;28;20030;-77
2024/01/04 10:06:40;;;;;;;2.90;0.77;;;;;;;;;;5001436;28;20053;-77
2024/01/04 10:09:05;;;;;;;5.70;0.63;;;;;;;;;;4999448;28;20027;-78
2024/01/04 10:11:35;;;;;;;2.50;0.85;;;;;;;;;;5000805;28;20038;-77
2024/01/04 10:14:01;;;;;;;2.95;0.90;;;;;;;;;;4998251;28;20332;-77
2024/01/04 10:16:27;;;;;;;3.30;0.80;;;;;;;;;;5000900;28;20355;-76
2024/01/04 10:18:54;;;;;;;2.85;0.75;;;;;;;;;;5001033;28;20479;-77
2024/01/04 10:21:19;;;;;;;3.88;1.00;;;;;;;;;;5000178;28;20029;-78
2024/01/04 10:23:44;;;;;;;4.25;1.10;;;;;;;;;;5006689;28;20505;-77
2024/01/04 10:26:11;;;;;;;3.83;1.15;;;;;;;;;;5007142;28;20034;-76
2024/01/04 10:28:38;;;;;;;3.00;1.38;;;;;;;;;;5003780;28;20038;-77
2024/01/04 10:31:03;;;;;;;3.50;1.08;;;;;;;;;;5001378;28;20092;-76
2024/01/04 10:33:29;;;;;;;4.38;1.50;;;;;;;;;;5003174;28;20049;-76
2024/01/04 10:35:54;;;;;;;2.95;1.30;;;;;;;;;;5007070;28;20025;-76
2024/01/04 10:38:21;;;;;;;0.80;0.20;;;;;;;;;;5000253;28;20479;-76
2024/01/04 10:40:57;;;;;;;3.03;0.90;;;;;;;;;;4999197;28;20490;-76
2024/01/04 10:43:23;;;;;;;3.95;1.42;;;;;;;;;;5004064;28;20116;-76
2024/01/04 10:45:48;;;;;;;4.30;0.88;;;;;;;;;;5005331;28;20101;-76
2024/01/04 10:48:14;;;;;;;3.08;0.88;;;;;;;;;;5003332;28;20026;-76
2024/01/04 10:50:40;;;;;;;2.53;0.90;;;;;;;;;;5019612;28;20038;-76
2024/01/04 10:53:06;;;;;;;3.53;0.82;;;;;;;;;;5002972;28;20033;-76
2024/01/04 10:55:32;;;;;;;3.50;0.75;;;;;;;;;;5003951;28;20072;-76
2024/01/04 10:57:58;;;;;;;2.22;0.40;;;;;;;;;;5005853;28;20053;-77
2024/01/04 11:00:23;;;;;;;2.47;0.70;;;;;;;;;;5005410;28;20037;-76
2024/01/04 11:02:50;;;;;;;2.65;0.60;;;;;;;;;;5005743;28;20030;-77
2024/01/04 11:05:17;;;;;;;3.47;0.90;;;;;;;;;;5004245;28;20083;-75
2024/01/04 11:07:43;;;;;;;2.15;0.60;;;;;;;;;;5000083;28;20026;-76
2024/01/04 11:10:09;;;;;;;2.88;0.80;;;;;;;;;;5006256;28;20049;-76
2024/01/04 11:12:35;;;;;;;2.53;0.80;;;;;;;;;;5002598;28;20073;-76
2024/01/04 11:15:01;;;;;;;3.65;0.90;;;;;;;;;;5006779;28;20474;-75
2024/01/04 11:17:45;;;;;;;2.40;0.80;;;;;;;;;;5002993;28;20088;-76
2024/01/04 11:20:29;;;;;;;2.92;0.90;;;;;;;;;;5002711;28;20037;-76
2024/01/04 11:23:04;;;;;;;0.90;0.38;;;;;;;;;;5003824;28;20121;-75
2024/01/04 11:25:46;;;;;;;3.35;1.05;;;;;;;;;;5018237;28;20030;-76
2024/01/04 11:28:12;;;;;;;3.15;0.50;;;;;;;;;;5003497;28;20049;-76
2024/01/04 11:30:37;;;;;;;1.83;0.57;;;;;;;;;;5004901;28;20487;-75
2024/01/04 11:33:06;;;;;;;1.42;0.50;;;;;;;;;;5019652;28;20033;-77
2024/01/04 11:35:38;;;;;;;2.97;0.85;;;;;;;;;;5017159;28;20026;-77
2024/01/04 11:38:03;;;;;;;;;;;;;;;;;;5005064;28;20036;-77
2024/01/04 11:40:29;;;;;;;2.65;0.52;;;;;;;;;;5017553;28;19914;-77
2024/01/04 11:42:55;;;;;;;2.13;0.57;;;;;;;;;;5020059;28;20976;-77
2024/01/04 11:45:22;;;;;;;2.67;0.80;;;;;;;;;;5004704;28;20162;-77
2024/01/04 11:47:48;;;;;;;4.03;1.02;;;;;;;;;;4999138;28;20034;-77
2024/01/04 11:50:14;;;;;;;2.03;0.82;;;;;;;;;;4998543;28;20117;-77
2024/01/04 11:52:40;;;;;;;2.33;0.90;;;;;;;;;;5001657;28;20133;-77
2024/01/04 11:55:05;;;;;;;2.00;0.60;;;;;;;;;;5005454;28;20014;-77
2024/01/04 11:57:30;;;;;;;3.25;0.70;;;;;;;;;;5011514;28;20065;-76
2024/01/04 11:59:56;;;;;;;2.85;0.77;;;;;;;;;;5023819;28;20036;-76
2024/01/04 12:02:21;;;;;;;2.65;0.80;;;;;;;;;;5014020;28;20034;-76
2024/01/04 12:04:47;;;;;;;2.55;0.80;;;;;;;;;;5001873;28;20034;-77
2024/01/04 12:07:12;;;;;;;2.63;0.88;;;;;;;;;;5005304;28;20025;-76
2024/01/04 12:09:37;;;;;;;5.07;0.80;;;;;;;;;;5003199;28;20042;-76
2024/01/04 12:12:04;;;;;;;3.08;0.85;;;;;;;;;;5019463;28;20084;-77
2024/01/04 12:14:29;;;;;;;3.72;0.73;;;;;;;;;;5001213;28;20030;-76
2024/01/04 12:16:54;;;;;;;1.55;0.60;;;;;;;;;;5000233;28;20026;-76
2024/01/04 12:19:19;;;;;;;4.07;0.70;;;;;;;;;;5003585;28;20057;-77
2024/01/04 12:21:45;;;;;;;3.00;0.90;;;;;;;;;;5002331;28;20748;-76
2024/01/04 12:24:11;;;;;;;3.42;0.93;;;;;;;;;;5003897;28;20052;-76
2024/01/04 12:26:36;;;;;;;3.58;0.70;;;;;;;;;;5002947;28;20107;-77
2024/01/04 12:29:02;;;;;;;1.55;0.55;;;;;;;;;;5020076;28;20033;-76
2024/01/04 12:31:27;;;;;;;1.85;0.77;;;;;;;;;;5018552;28;20030;-76
2024/01/04 12:33:53;;;;;;;1.90;0.68;;;;;;;;;;5002672;28;20042;-77
2024/01/04 12:36:21;;;;;;;1.85;0.73;;;;;;;;;;5003485;28;20034;-76
2024/01/04 12:38:48;;;;;;;1.35;0.45;;;;;;;;;;5002933;28;20112;-75
2024/01/04 12:41:27;;;;;;;2.70;0.63;;;;;;;;;;5002134;28;20038;-76
2024/01/04 12:43:53;;;;;;;2.15;0.55;;;;;;;;;;5016692;28;20034;-77
2024/01/04 12:46:19;;;;;;;1.85;0.73;;;;;;;;;;5003562;28;20042;-76
2024/01/04 12:48:44;;;;;;;3.55;0.90;;;;;;;;;;4999923;28;20022;-76
2024/01/04 12:51:16;;;;;;;2.55;0.75;;;;;;;;;;5007244;28;20410;-76
2024/01/04 12:53:42;;;;;;;2.85;0.90;;;;;;;;;;5017689;28;20514;-76
2024/01/04 12:56:11;;;;;;;3.53;0.90;;;;;;;;;;5003150;28;20018;-75
2024/01/04 12:58:36;;;;;;;2.78;0.90;;;;;;;;;;4999932;28;20487;-77
2024/01/04 13:01:02;;;;;;;1.35;0.40;;;;;;;;;;5003406;28;20084;-76
2024/01/04 13:03:27;;;;;;;2.05;0.60;;;;;;;;;;5001727;28;20161;-76
2024/01/04 13:05:52;;;;;;;2.15;0.82;;;;;;;;;;5004023;28;20042;-75
2024/01/04 13:08:18;;;;;;;2.40;0.52;;;;;;;;;;5000950;28;20065;-76
2024/01/04 13:10:44;;;;;;;2.08;0.77;;;;;;;;;;5000755;28;20109;-76
2024/01/04 13:13:09;;;;;;;1.90;0.70;;;;;;;;;;5003506;28;20114;-76
2024/01/04 13:15:34;;;;;;;2.58;0.77;;;;;;;;;;5001503;28;20034;-76
2024/01/04 13:17:59;;;;;;;4.38;0.80;;;;;;;;;;4997478;28;20045;-76
2024/01/04 13:20:25;;;;;;;2.75;0.90;;;;;;;;;;5004773;28;20026;-75
2024/01/04 13:22:50;;;;;;;2.15;0.95;;;;;;;;;;5003230;28;20026;-76
2024/01/04 13:25:15;;;;;;;2.63;0.95;;;;;;;;;;5000838;28;20498;-76
2024/01/04 13:27:40;;;;;;;3.58;1.38;;;;;;;;;;5001235;28;20038;-76
2024/01/04 13:30:06;;;;;;;4.07;1.40;;;;;;;;;;5002044;28;20184;-76
2024/01/04 13:32:31;;;;;;;4.65;1.38;;;;;;;;;;5000721;28;20046;-75
2024/01/04 13:34:56;;;;;;;2.45;1.20;;;;;;;;;;5006983;28;20445;-76
2024/01/04 13:37:21;;;;;;;4.13;1.30;;;;;;;;;;5000747;28;20031;-76
2024/01/04 13:39:46;;;;;;;3.20;1.08;;;;;;;;;;5003066;28;20105;-76
2024/01/04 13:42:12;;;;;;;2.60;1.10;;;;;;;;;;5001342;28;20037;-76
2024/01/04 13:44:37;;;;;;;3.42;1.23;;;;;;;;;;5000665;28;20030;-77
2024/01/04 13:47:03;;;;;;;1.83;1.00;;;;;;;;;;5003929;28;20036;-76
2024/01/04 13:49:28;;;;;;;1.90;0.95;;;;;;;;;;5007285;28;20045;-76
2024/01/04 13:51:53;;;;;;;3.00;1.38;;;;;;;;;;5002272;28;20105;-76
2024/01/04 13:54:18;;;;;;;5.30;1.33;;;;;;;;;;4999692;28;20037;-76
2024/01/04 13:56:44;;;;;;;2.65;1.30;;;;;;;;;;5001031;28;20037;-76
2024/01/04 13:59:09;;;;;;;2.60;1.00;;;;;;;;;;5002745;28;20077;-77
2024/01/04 14:01:35;;;;;;;3.88;1.42;;;;;;;;;;5015260;28;20454;-76
2024/01/04 14:04:00;;;;;;;3.40;1.23;;;;;;;;;;5000506;28;20022;-76
2024/01/04 14:06:25;;;;;;;2.92;1.10;;;;;;;;;;5003144;28;20550;-76
2024/01/04 14:08:55;;;;;;;2.10;1.30;;;;;;;;;;4997623;28;20033;-76
2024/01/04 14:11:21;;;;;;;3.38;1.60;;;;;;;;;;5002308;28;20040;-76
2024/01/04 14:13:46;;;;;;;2.58;1.30;;;;;;;;;;5014601;28;20101;-76
2024/01/04 14:16:11;;;;;;;4.57;1.30;;;;;;;;;;5002284;28;20026;-77
2024/01/04 14:18:36;;;;;;;2.88;1.20;;;;;;;;;;5000434;28;20399;-77
2024/01/04 14:21:02;;;;;;;2.53;1.35;;;;;;;;;;4999143;28;20084;-78
2024/01/04 14:23:27;;;;;;;3.22;1.73;;;;;;;;;;5016289;28;20479;-77
2024/01/04 14:25:53;;;;;;;3.75;1.70;;;;;;;;;;5001088;28;20036;-77
2024/01/04 14:28:18;;;;;;;3.70;1.40;;;;;;;;;;5001685;28;20391;-77
2024/01/04 14:30:43;;;;;;;3.83;1.88;;;;;;;;;;5000766;28;20039;-77
2024/01/04 14:33:08;;;;;;;3.50;1.60;;;;;;;;;;5001309;28;20107;-77